Terminal Aerodrome Forecast
Issued by NWS Jackson, MS

Home | Current Version | Previous Version | Text Only | Print | Product List | Glossary On
Versions: 1 2 3 4 5 6 7 8 9 10 11 12 13 14 15 16
749
FTUS44 KMEG 222320
TAFTUP
TAF
KTUP 222320Z 2300/2324 VRB03KT P6SM SCT045 SCT250
     FM230800 00000KT 6SM BR SCT010
      TEMPO 2309/2311 4SM BR BKN010
     FM231100 17004KT 4SM BR OVC007
     FM231600 19005KT P6SM OVC015
     FM231900 21008KT P6SM BKN030=

USA.gov is the U.S. government's official web portal to all federal, state and local government web resources and services.